Time;durP1;ratioP1;P1;durP2;ratioP2;P2;SDS_P1;SDS_P2;PMS_P1;PMS_P2;Temp;Humidity;BMP_temperature;BMP_pressure;BME280_temperature;BME280_humidity;BME280_pressure;Samples;Min_cycle;Max_cycle;Signal;HPM_P1;HPM_P2
2021/07/09 00:02:03;;;;;;;15.98;7.87;;;;;;;18.02;76.62;101672.43;1834808;77;20867;-71
2021/07/09 00:04:29;;;;;;;13.03;7.33;;;;;;;17.99;76.60;101666.52;1834844;78;20918;-70
2021/07/09 00:06:56;;;;;;;22.48;8.33;;;;;;;17.97;76.50;101672.42;1834792;77;20895;-71
2021/07/09 00:09:24;;;;;;;18.65;9.00;;;;;;;17.95;76.49;101662.40;1834823;77;21555;-71
2021/07/09 00:11:53;;;;;;;19.90;9.48;;;;;;;17.92;76.50;101661.28;1834684;77;20869;-70
2021/07/09 00:14:25;;;;;;;16.67;9.33;;;;;;;17.89;76.63;101665.50;1834649;77;20918;-72
2021/07/09 00:16:53;;;;;;;21.23;9.68;;;;;;;17.85;76.82;101664.88;1834881;77;20890;-71
2021/07/09 00:19:20;;;;;;;20.65;8.95;;;;;;;17.83;76.93;101665.95;1835039;76;20882;-70
2021/07/09 00:21:48;;;;;;;17.55;9.68;;;;;;;17.81;77.04;101663.40;1834810;77;21526;-71
2021/07/09 00:24:17;;;;;;;17.17;8.08;;;;;;;17.80;77.03;101664.34;1834703;77;21000;-73
2021/07/09 00:26:43;;;;;;;14.85;8.10;;;;;;;17.76;76.95;101667.72;1834734;76;20871;-71
2021/07/09 00:29:12;;;;;;;15.55;7.72;;;;;;;17.75;77.06;101673.13;1834674;77;20875;-71
2021/07/09 00:31:41;;;;;;;13.62;8.43;;;;;;;17.71;77.10;101663.70;1834742;77;21349;-71
2021/07/09 00:34:08;;;;;;;15.18;8.43;;;;;;;17.69;77.08;101657.17;1834774;77;21341;-71
2021/07/09 00:36:35;;;;;;;14.87;8.50;;;;;;;17.68;77.19;101661.28;1834523;77;21168;-71
2021/07/09 00:39:06;;;;;;;15.65;9.18;;;;;;;17.66;77.19;101661.38;1833867;78;20875;-71
2021/07/09 00:41:33;;;;;;;14.38;8.75;;;;;;;17.63;77.21;101657.64;1834638;77;20855;-71
2021/07/09 00:44:01;;;;;;;13.75;7.72;;;;;;;17.62;77.26;101659.91;1834790;77;20859;-71
2021/07/09 00:46:36;;;;;;;12.18;7.72;;;;;;;17.60;77.10;101656.03;1834722;77;21465;-70
2021/07/09 00:49:07;;;;;;;17.70;8.50;;;;;;;17.60;77.02;101654.70;1834318;77;21360;-72
2021/07/09 00:51:36;;;;;;;11.63;7.80;;;;;;;17.59;77.26;101658.33;1834888;77;20914;-70
2021/07/09 00:54:03;;;;;;;13.08;8.00;;;;;;;17.59;77.42;101662.80;1834776;77;20835;-71
2021/07/09 00:56:31;;;;;;;18.60;9.43;;;;;;;17.57;77.44;101664.72;1834680;77;21320;-72
2021/07/09 00:59:00;;;;;;;13.75;8.70;;;;;;;17.56;77.48;101661.22;1853359;77;21128;-71
2021/07/09 01:01:27;;;;;;;14.13;8.30;;;;;;;17.54;77.68;101659.61;1859834;77;20867;-70
2021/07/09 01:03:54;;;;;;;16.65;9.13;;;;;;;17.52;77.64;101665.50;1860255;77;20914;-71
2021/07/09 01:06:21;;;;;;;12.35;8.13;;;;;;;17.49;77.82;101666.58;1859934;77;20891;-71
2021/07/09 01:08:49;;;;;;;17.65;8.48;;;;;;;17.48;77.69;101662.25;1859985;77;20923;-72
2021/07/09 01:11:19;;;;;;;18.17;8.68;;;;;;;17.49;77.68;101660.44;1859841;77;21412;-72
2021/07/09 01:13:47;;;;;;;16.85;9.10;;;;;;;17.50;77.43;101670.10;1829962;77;20872;-70
2021/07/09 01:16:14;;;;;;;15.25;8.78;;;;;;;17.50;77.37;101666.12;1859990;77;20828;-71
2021/07/09 01:18:43;;;;;;;17.50;7.83;;;;;;;17.50;77.48;101666.12;1859842;76;20910;-71
2021/07/09 01:21:09;;;;;;;16.80;9.28;;;;;;;17.48;77.43;101664.90;1860079;77;20867;-70
2021/07/09 01:23:38;;;;;;;12.43;8.05;;;;;;;17.48;77.48;101662.73;1859835;77;21997;-69
2021/07/09 01:26:05;;;;;;;16.35;7.35;;;;;;;17.45;77.37;101665.59;1859776;76;20955;-70
2021/07/09 01:28:32;;;;;;;12.85;8.63;;;;;;;17.42;77.40;101666.66;1860254;77;20875;-70
2021/07/09 01:31:00;;;;;;;15.00;7.97;;;;;;;17.38;77.33;101659.88;1859899;76;20907;-71
2021/07/09 01:33:27;;;;;;;18.30;7.87;;;;;;;17.36;77.35;101663.99;1860170;77;20868;-71
2021/07/09 01:35:55;;;;;;;10.35;6.92;;;;;;;17.35;77.23;101664.09;1859915;77;21562;-71
2021/07/09 01:38:23;;;;;;;14.80;7.83;;;;;;;17.32;77.05;101661.19;1859720;77;20863;-70
2021/07/09 01:40:50;;;;;;;15.63;7.25;;;;;;;17.31;77.08;101658.64;1859957;77;21357;-71
2021/07/09 01:43:16;;;;;;;13.50;7.12;;;;;;;17.31;77.17;101662.61;1860146;77;20876;-70
2021/07/09 01:45:43;;;;;;;13.65;7.53;;;;;;;17.28;77.35;101663.69;1860126;76;20867;-69
2021/07/09 01:48:10;;;;;;;15.88;7.83;;;;;;;17.26;77.55;101668.73;1860458;77;21127;-71
2021/07/09 01:50:38;;;;;;;14.28;7.87;;;;;;;17.24;77.54;101658.72;1860066;77;20965;-71
2021/07/09 01:53:04;;;;;;;13.00;7.47;;;;;;;17.22;77.50;101665.92;1860319;76;21049;-71
2021/07/09 01:55:31;;;;;;;14.53;7.10;;;;;;;17.17;77.83;101663.13;1859978;77;20911;-70
2021/07/09 01:57:58;;;;;;;11.22;6.67;;;;;;;17.16;78.10;101661.44;1855657;75;21394;-71
2021/07/09 02:00:26;;;;;;;11.80;6.53;;;;;;;17.18;78.04;101662.15;1834767;77;21540;-71
2021/07/09 02:02:53;;;;;;;11.25;6.67;;;;;;;17.16;78.07;101663.22;1834836;77;20859;-72
2021/07/09 02:05:21;;;;;;;13.38;7.58;;;;;;;17.14;78.04;101667.78;1834742;76;20848;-70
2021/07/09 02:07:54;;;;;;;11.68;6.72;;;;;;;17.15;78.16;101670.33;1834860;77;20835;-71
2021/07/09 02:10:24;;;;;;;13.65;7.70;;;;;;;17.17;78.12;101669.75;1834911;77;21384;-71
2021/07/09 02:12:54;;;;;;;13.10;7.67;;;;;;;17.18;77.81;101663.96;1834847;78;20966;-70
2021/07/09 02:15:28;;;;;;;10.23;6.75;;;;;;;17.20;77.64;101668.19;1834736;77;20843;-71
2021/07/09 02:17:56;;;;;;;10.75;7.00;;;;;;;17.22;77.64;101669.91;1834746;78;20942;-70
2021/07/09 02:20:26;;;;;;;10.55;7.17;;;;;;;17.21;77.80;101674.36;1834729;77;20824;-70
2021/07/09 02:22:57;;;;;;;11.08;7.10;;;;;;;17.22;77.78;101672.07;1834824;76;21368;-70
2021/07/09 02:25:24;;;;;;;10.88;6.03;;;;;;;17.23;77.82;101671.13;1834891;78;21144;-69
2021/07/09 02:27:52;;;;;;;11.68;6.55;;;;;;;17.25;77.86;101676.30;1834784;77;21396;-70
2021/07/09 02:30:22;;;;;;;11.45;6.65;;;;;;;17.24;77.80;101675.46;1834697;77;20895;-71
2021/07/09 02:32:50;;;;;;;17.27;6.60;;;;;;;17.23;77.74;101675.11;1834878;77;20910;-70
2021/07/09 02:35:19;;;;;;;12.10;7.00;;;;;;;17.24;77.67;101668.83;1834874;78;21368;-71
2021/07/09 02:37:47;;;;;;;12.43;7.00;;;;;;;17.25;77.80;101671.00;1834712;78;21780;-69
2021/07/09 02:40:16;;;;;;;10.35;6.58;;;;;;;17.26;77.61;101667.41;1834688;78;20874;-70
2021/07/09 02:42:46;;;;;;;16.50;5.92;;;;;;;17.25;77.52;101673.65;1834714;77;21330;-70
2021/07/09 02:45:15;;;;;;;13.55;6.15;;;;;;;17.24;77.42;101663.53;1834783;78;21329;-70
2021/07/09 02:47:43;;;;;;;21.20;7.33;;;;;;;17.26;77.41;101669.57;1834898;76;20867;-70
2021/07/09 02:50:16;;;;;;;11.28;6.30;;;;;;;17.28;77.41;101666.82;1834929;77;22199;-70
2021/07/09 02:52:43;;;;;;;6.55;5.00;;;;;;;17.30;77.51;101662.26;1835085;76;20840;-70
2021/07/09 02:55:11;;;;;;;10.00;6.15;;;;;;;17.31;77.67;101667.91;1834719;78;20962;-70
2021/07/09 02:57:38;;;;;;;9.73;5.72;;;;;;;17.31;77.78;101670.56;1835034;77;21013;-72
2021/07/09 03:00:09;;;;;;;14.87;6.33;;;;;;;17.33;77.81;101666.00;1848108;77;20893;-74
2021/07/09 03:02:37;;;;;;;13.85;5.25;;;;;;;17.36;77.90;101665.77;1849221;76;21814;-72
2021/07/09 03:05:05;;;;;;;8.15;5.28;;;;;;;17.39;78.15;101658.94;1849095;77;20905;-71
2021/07/09 03:07:33;;;;;;;9.05;5.45;;;;;;;17.43;78.21;101660.87;1849251;77;21292;-73
2021/07/09 03:10:04;;;;;;;9.80;5.58;;;;;;;17.46;78.13;101664.16;1849241;77;21140;-71
2021/07/09 03:12:31;;;;;;;10.00;4.95;;;;;;;17.51;78.38;101669.13;1849219;76;20870;-73
2021/07/09 03:14:58;;;;;;;14.65;4.95;;;;;;;17.55;78.33;101668.80;1849250;77;21397;-75
2021/07/09 03:17:25;;;;;;;9.85;5.62;;;;;;;17.59;78.24;101668.94;1849167;76;20928;-71
2021/07/09 03:19:52;;;;;;;11.70;6.33;;;;;;;17.65;78.21;101671.61;1849257;77;20905;-72
2021/07/09 03:22:21;;;;;;;12.18;6.05;;;;;;;17.70;78.31;101669.49;1849196;77;20838;-72
2021/07/09 03:24:48;;;;;;;14.15;5.50;;;;;;;17.77;78.24;101680.02;1849268;77;20965;-71
2021/07/09 03:27:15;;;;;;;9.48;5.05;;;;;;;17.79;78.34;101680.75;1849262;77;21096;-70
2021/07/09 03:29:42;;;;;;;10.00;5.00;;;;;;;17.88;78.50;101685.05;1849369;77;20870;-72
2021/07/09 03:32:10;;;;;;;11.95;4.65;;;;;;;17.94;78.83;101673.50;1849266;77;20929;-71
2021/07/09 03:34:37;;;;;;;11.70;5.12;;;;;;;18.04;78.79;101682.10;1849121;77;21411;-70
2021/07/09 03:37:04;;;;;;;10.45;5.75;;;;;;;18.13;78.83;101679.59;1849262;76;21055;-73
2021/07/09 03:39:33;;;;;;;11.12;5.00;;;;;;;18.23;78.99;101672.64;1849194;77;20905;-71
2021/07/09 03:42:00;;;;;;;6.95;4.87;;;;;;;18.34;78.67;101678.93;1849248;76;20956;-74
2021/07/09 03:44:28;;;;;;;9.83;5.72;;;;;;;18.43;78.56;101679.55;1849128;77;20885;-72
2021/07/09 03:46:54;;;;;;;7.20;4.90;;;;;;;18.55;78.04;101680.45;1849726;76;20893;-72
2021/07/09 03:49:21;;;;;;;6.33;4.83;;;;;;;18.64;77.66;101681.06;1849267;77;20909;-71
2021/07/09 03:51:49;;;;;;;18.55;5.62;;;;;;;18.73;77.30;101674.19;1849198;77;21995;-72
2021/07/09 03:54:16;;;;;;;7.62;5.25;;;;;;;18.80;76.89;101678.09;1849297;77;20995;-72
2021/07/09 03:56:43;;;;;;;7.55;5.08;;;;;;;18.88;76.60;101681.49;1849080;76;20862;-73
2021/07/09 03:59:10;;;;;;;9.38;5.12;;;;;;;18.96;76.36;101681.72;1843318;77;20939;-72
2021/07/09 04:01:37;;;;;;;8.20;5.50;;;;;;;19.02;76.45;101679.42;1834806;77;20962;-73
2021/07/09 04:04:04;;;;;;;11.70;4.92;;;;;;;19.12;76.39;101683.55;1834953;78;21892;-71
2021/07/09 04:06:31;;;;;;;11.93;4.80;;;;;;;19.20;76.51;101675.78;1834694;78;20890;-72
2021/07/09 04:08:58;;;;;;;12.37;5.62;;;;;;;19.28;76.36;101668.54;1834989;77;20923;-73
2021/07/09 04:11:25;;;;;;;7.00;5.62;;;;;;;19.39;76.18;101669.02;1834631;77;20995;-72
2021/07/09 04:13:52;;;;;;;7.72;5.12;;;;;;;19.50;75.85;101669.45;1835064;78;20926;-73
2021/07/09 04:16:19;;;;;;;10.20;5.00;;;;;;;19.71;75.91;101667.73;1834604;77;21548;-73
2021/07/09 04:18:46;;;;;;;15.70;6.45;;;;;;;20.14;75.16;101665.98;1834946;77;21386;-72
2021/07/09 04:21:13;;;;;;;13.15;5.22;;;;;;;20.67;73.90;101661.45;1834616;77;20871;-70
2021/07/09 04:23:40;;;;;;;11.08;5.08;;;;;;;21.31;72.21;101660.79;1834902;77;20954;-71
2021/07/09 04:26:07;;;;;;;13.25;5.50;;;;;;;21.98;70.10;101655.20;1834814;77;20867;-71
2021/07/09 04:28:34;;;;;;;9.80;4.90;;;;;;;22.60;68.36;101650.34;1834989;77;21758;-71
2021/07/09 04:31:01;;;;;;;12.37;4.92;;;;;;;23.23;66.48;101659.03;1834533;77;20852;-72
2021/07/09 04:33:28;;;;;;;16.80;5.42;;;;;;;23.84;64.65;101648.16;1834598;76;20930;-71
2021/07/09 04:35:54;;;;;;;15.65;5.78;;;;;;;24.44;63.23;101647.44;1834634;77;20882;-71
2021/07/09 04:38:23;;;;;;;8.20;4.42;;;;;;;25.01;61.32;101647.77;1834680;77;21332;-71
2021/07/09 04:40:51;;;;;;;8.98;4.35;;;;;;;25.52;59.64;101649.61;1834677;77;21100;-75
2021/07/09 04:43:18;;;;;;;9.63;4.50;;;;;;;26.01;58.56;101642.95;1834605;77;20911;-70
2021/07/09 04:45:45;;;;;;;13.43;6.92;;;;;;;26.49;57.84;101648.45;1834651;77;20935;-72
2021/07/09 04:48:12;;;;;;;14.03;5.58;;;;;;;26.95;56.63;101650.86;1834640;76;21396;-71
2021/07/09 04:50:39;;;;;;;8.68;4.80;;;;;;;27.37;55.52;101652.84;1834633;76;20899;-70
2021/07/09 04:53:06;;;;;;;7.95;5.00;;;;;;;27.79;54.32;101645.67;1834762;76;21013;-71
2021/07/09 04:55:34;;;;;;;8.13;5.83;;;;;;;28.20;53.00;101641.80;1834587;78;20979;-70
2021/07/09 04:58:00;;;;;;;16.02;6.28;;;;;;;28.56;52.15;101639.77;1834543;78;20879;-71
2021/07/09 05:00:27;;;;;;;11.22;5.40;;;;;;;28.91;50.66;101640.88;1855254;77;20915;-74
2021/07/09 05:02:58;;;;;;;6.85;4.58;;;;;;;29.24;49.01;101637.77;1859993;77;20871;-73
2021/07/09 05:05:24;;;;;;;9.88;4.97;;;;;;;29.49;48.50;101635.02;1860170;77;21103;-68
2021/07/09 05:07:52;;;;;;;8.05;5.30;;;;;;;29.73;45.22;101637.05;1859884;77;20839;-70
2021/07/09 05:10:19;;;;;;;11.40;5.72;;;;;;;29.99;44.22;101640.48;1860252;77;20915;-69
2021/07/09 05:12:46;;;;;;;11.68;6.75;;;;;;;30.26;43.20;101632.07;1860332;77;20969;-68
2021/07/09 05:15:13;;;;;;;8.83;5.95;;;;;;;30.50;42.23;101634.00;1860173;76;20875;-69
2021/07/09 05:17:41;;;;;;;13.75;7.15;;;;;;;30.71;42.74;101631.73;1859867;77;21100;-69
2021/07/09 05:20:12;;;;;;;15.08;6.70;;;;;;;30.90;42.90;101635.59;1859904;77;20996;-70
2021/07/09 05:22:39;;;;;;;9.78;4.62;;;;;;;31.11;42.52;101632.76;1860065;77;20946;-68
2021/07/09 05:25:06;;;;;;;9.53;4.90;;;;;;;31.30;42.50;101634.36;1860348;77;20922;-71
2021/07/09 05:27:33;;;;;;;10.68;5.92;;;;;;;31.45;42.47;101636.41;1860096;77;20824;-71
2021/07/09 05:30:00;;;;;;;9.58;5.00;;;;;;;31.62;41.62;101640.94;1860437;77;21836;-71
2021/07/09 05:32:27;;;;;;;9.08;5.33;;;;;;;31.77;40.72;101633.94;1859893;77;20922;-70
2021/07/09 05:34:55;;;;;;;12.25;5.45;;;;;;;31.94;40.50;101645.22;1860130;77;20828;-69
2021/07/09 05:37:22;;;;;;;10.75;5.58;;;;;;;32.11;40.20;101636.17;1859973;76;20887;-70
2021/07/09 05:39:50;;;;;;;10.08;5.17;;;;;;;32.24;40.44;101638.02;1860118;77;21456;-70
2021/07/09 05:42:17;;;;;;;6.25;4.95;;;;;;;32.28;40.21;101634.66;1860029;77;21128;-70
2021/07/09 05:44:44;;;;;;;8.38;5.90;;;;;;;32.40;40.17;101628.08;1860334;76;20919;-71
2021/07/09 05:47:12;;;;;;;12.90;5.83;;;;;;;32.52;38.85;101626.92;1860067;77;21420;-70
2021/07/09 05:49:39;;;;;;;8.88;5.08;;;;;;;32.62;38.91;101630.04;1860300;77;20971;-71
2021/07/09 05:52:06;;;;;;;8.93;5.00;;;;;;;32.66;38.48;101635.86;1860069;77;20824;-71
2021/07/09 05:54:34;;;;;;;7.12;4.83;;;;;;;32.69;38.17;101628.66;1860116;77;21984;-70
2021/07/09 05:57:01;;;;;;;11.03;4.97;;;;;;;32.71;38.14;101630.11;1859903;76;20836;-70
2021/07/09 05:59:28;;;;;;;7.37;4.78;;;;;;;32.78;38.91;101626.83;1859966;77;20899;-70
2021/07/09 06:01:55;;;;;;;6.67;4.90;;;;;;;32.97;38.53;101621.02;1860079;76;21393;-70
2021/07/09 06:04:22;;;;;;;6.25;4.03;;;;;;;33.19;37.89;101626.14;1860117;77;20844;-71
2021/07/09 06:06:49;;;;;;;8.68;4.35;;;;;;;33.33;36.83;101624.16;1859977;77;21107;-71
2021/07/09 06:09:15;;;;;;;12.18;4.42;;;;;;;33.47;36.42;101620.31;1860026;77;20851;-70
2021/07/09 06:11:43;;;;;;;5.67;3.75;;;;;;;33.60;36.02;101624.33;1859934;76;20859;-71
2021/07/09 06:14:11;;;;;;;8.68;3.65;;;;;;;33.74;36.16;101624.23;1860051;77;20947;-69
2021/07/09 06:16:38;;;;;;;9.65;3.67;;;;;;;33.96;36.33;101620.05;1860035;77;21400;-71
2021/07/09 06:19:05;;;;;;;6.30;3.60;;;;;;;34.10;35.29;101619.39;1860015;77;22112;-71
2021/07/09 06:21:32;;;;;;;7.58;4.50;;;;;;;34.26;35.38;101616.64;1859927;77;20902;-69
2021/07/09 06:23:59;;;;;;;4.78;3.70;;;;;;;34.39;35.20;101614.31;1860000;77;20946;-70
2021/07/09 06:26:26;;;;;;;8.60;3.58;;;;;;;34.55;35.32;101619.67;1860044;77;20943;-69
2021/07/09 06:28:53;;;;;;;7.45;3.90;;;;;;;34.78;33.98;101614.94;1859985;77;20868;-69
2021/07/09 06:31:20;;;;;;;6.03;3.83;;;;;;;34.98;33.13;101607.32;1860108;77;21510;-69
2021/07/09 06:33:50;;;;;;;13.75;4.28;;;;;;;35.06;33.39;101603.42;1859972;77;20946;-69
2021/07/09 06:36:16;;;;;;;10.38;3.50;;;;;;;35.23;31.98;101608.56;1860101;76;20981;-71
2021/07/09 06:38:43;;;;;;;6.45;3.20;;;;;;;35.47;31.13;101609.45;1860027;77;20859;-70
2021/07/09 06:41:10;;;;;;;6.42;3.25;;;;;;;35.67;31.23;101602.34;1860115;76;20903;-71
2021/07/09 06:43:37;;;;;;;5.55;3.58;;;;;;;35.76;31.15;101604.73;1859977;77;21790;-73
2021/07/09 06:46:04;;;;;;;6.58;3.83;;;;;;;35.86;30.51;101603.08;1859967;77;20911;-74
2021/07/09 06:48:31;;;;;;;6.70;3.58;;;;;;;35.97;30.90;101604.66;1859941;76;21345;-72
2021/07/09 06:50:58;;;;;;;8.23;3.33;;;;;;;36.04;30.37;101602.63;1860084;77;20915;-72
2021/07/09 06:53:25;;;;;;;11.78;3.85;;;;;;;36.05;30.57;101598.84;1860071;77;20856;-72
2021/07/09 06:55:52;;;;;;;7.70;3.95;;;;;;;36.14;30.13;101594.71;1859957;77;21135;-73
2021/07/09 06:58:19;;;;;;;6.50;3.62;;;;;;;36.33;30.91;101595.92;1859957;77;20923;-72
2021/07/09 07:00:46;;;;;;;4.30;3.10;;;;;;;36.56;30.27;101589.59;1859812;77;20945;-73
2021/07/09 07:03:13;;;;;;;10.23;3.22;;;;;;;36.75;29.58;101587.52;1860269;77;21341;-71
2021/07/09 07:05:40;;;;;;;9.15;3.90;;;;;;;36.95;30.16;101581.06;1860130;77;20970;-74
2021/07/09 07:08:19;;;;;;;10.30;3.85;;;;;;;37.20;30.09;101578.01;1860281;77;21484;-72
2021/07/09 07:10:49;;;;;;;14.07;3.92;;;;;;;37.41;29.17;101577.80;1859249;76;20953;-72
2021/07/09 07:13:16;;;;;;;8.63;3.60;;;;;;;37.55;28.36;101581.06;1860027;77;20987;-72
2021/07/09 07:15:43;;;;;;;12.93;4.33;;;;;;;37.64;27.94;101571.38;1859941;76;20864;-72
2021/07/09 07:18:10;;;;;;;7.70;3.65;;;;;;;37.78;27.74;101574.59;1860227;77;21393;-72
2021/07/09 07:20:40;;;;;;;7.42;3.58;;;;;;;37.89;27.67;101570.09;1859894;77;21520;-73
2021/07/09 07:23:09;;;;;;;5.60;3.02;;;;;;;38.01;27.77;101572.72;1860276;77;21001;-72
2021/07/09 07:25:37;;;;;;;7.20;3.02;;;;;;;38.01;27.09;101573.53;1860007;77;21372;-74
2021/07/09 07:28:05;;;;;;;5.70;3.10;;;;;;;38.01;27.04;101569.42;1859874;77;20938;-73
2021/07/09 07:30:32;;;;;;;6.15;2.90;;;;;;;38.10;27.35;101571.22;1859914;77;20918;-74
2021/07/09 07:32:59;;;;;;;4.28;2.47;;;;;;;38.17;24.97;101565.55;1859956;77;21543;-74
2021/07/09 07:35:26;;;;;;;7.72;2.98;;;;;;;38.28;24.76;101568.71;1859830;77;21044;-73
2021/07/09 07:37:53;;;;;;;5.30;2.33;;;;;;;38.37;24.93;101568.55;1860340;77;21404;-71
2021/07/09 07:40:20;;;;;;;5.10;1.82;;;;;;;38.29;22.45;101564.36;1860001;77;20939;-74
2021/07/09 07:42:46;;;;;;;9.38;2.40;;;;;;;38.21;23.46;101559.86;1860001;77;20967;-74
2021/07/09 07:45:13;;;;;;;6.97;2.55;;;;;;;38.18;21.20;101555.72;1859926;77;21649;-74
2021/07/09 07:47:41;;;;;;;9.53;2.00;;;;;;;38.18;22.43;101550.24;1859782;77;20915;-74
2021/07/09 07:50:09;;;;;;;4.97;2.30;;;;;;;38.28;22.54;101545.42;1860077;77;20875;-75
2021/07/09 07:52:36;;;;;;;5.22;2.15;;;;;;;38.33;21.90;101562.77;1860219;76;20825;-74
2021/07/09 07:55:04;;;;;;;8.28;2.58;;;;;;;38.34;21.40;101563.04;1859903;76;20915;-73
2021/07/09 07:57:32;;;;;;;8.73;3.80;;;;;;;38.36;21.18;101559.50;1859962;77;21140;-74
2021/07/09 08:00:00;;;;;;;8.50;2.42;;;;;;;38.46;21.28;101561.52;1859757;76;20864;-73
2021/07/09 08:02:27;;;;;;;3.02;2.10;;;;;;;38.49;21.15;101563.80;1859855;77;20906;-73
2021/07/09 08:04:54;;;;;;;2.60;1.90;;;;;;;38.55;20.80;101562.78;1859916;77;20906;-74
2021/07/09 08:07:20;;;;;;;2.62;1.62;;;;;;;38.67;21.89;101562.63;1859972;76;20908;-74
2021/07/09 08:09:49;;;;;;;10.80;2.17;;;;;;;38.79;21.15;101566.59;1859845;77;21979;-73
2021/07/09 08:12:16;;;;;;;3.42;1.60;;;;;;;38.77;21.40;101559.16;1859938;77;20832;-72
2021/07/09 08:14:45;;;;;;;4.28;1.47;;;;;;;38.75;20.41;101558.58;1859813;77;20927;-75
2021/07/09 08:17:13;;;;;;;1.98;1.25;;;;;;;38.82;21.84;101561.12;1859844;77;20895;-73
2021/07/09 08:19:40;;;;;;;3.92;1.70;;;;;;;38.87;21.42;101557.91;1859936;77;20899;-73
2021/07/09 08:22:07;;;;;;;2.20;2.00;;;;;;;38.92;21.57;101563.42;1859974;77;21485;-74
2021/07/09 08:24:34;;;;;;;3.70;1.85;;;;;;;39.00;21.79;101554.47;1859929;77;20899;-74
2021/07/09 08:27:01;;;;;;;2.02;1.85;;;;;;;39.07;21.42;101560.59;1859820;77;20879;-72
2021/07/09 08:29:28;;;;;;;4.60;2.20;;;;;;;39.07;21.42;101553.73;1860222;77;20956;-76
2021/07/09 08:31:56;;;;;;;1.85;1.37;;;;;;;39.11;22.02;101559.81;1859859;76;20911;-74
2021/07/09 08:34:25;;;;;;;2.25;1.35;;;;;;;39.14;20.30;101554.34;1859844;76;21290;-71
2021/07/09 08:36:53;;;;;;;3.90;1.70;;;;;;;39.14;20.23;101566.14;1859892;77;20851;-71
2021/07/09 08:39:20;;;;;;;3.42;1.80;;;;;;;39.06;19.65;101563.03;1859842;77;20911;-71
2021/07/09 08:41:48;;;;;;;5.28;1.50;;;;;;;39.10;21.49;101565.55;1859780;77;20989;-71
2021/07/09 08:44:15;;;;;;;3.12;2.80;;;;;;;39.22;20.75;101562.10;1859863;76;20875;-73
2021/07/09 08:46:43;;;;;;;3.95;1.92;;;;;;;39.30;20.83;101560.78;1859802;76;21152;-74
2021/07/09 08:49:15;;;;;;;2.42;1.95;;;;;;;39.34;19.64;101553.13;1859874;77;21396;-72
2021/07/09 08:51:44;;;;;;;3.65;1.70;;;;;;;39.28;19.82;101549.23;1859970;77;20922;-75
2021/07/09 08:54:16;;;;;;;2.05;1.95;;;;;;;39.27;21.08;101548.41;1859846;77;20974;-75
2021/07/09 08:56:44;;;;;;;2.02;1.72;;;;;;;39.21;20.52;101548.08;1860036;77;20926;-80
2021/07/09 08:59:11;;;;;;;4.95;1.62;;;;;;;39.14;20.65;101545.55;1859785;77;21761;-78
2021/07/09 09:01:58;;;;;;;2.33;1.40;;;;;;;39.09;20.14;101544.70;1859955;77;20864;-77
2021/07/09 09:04:35;;;;;;;2.22;1.40;;;;;;;39.10;20.90;101536.73;1859676;77;21459;-74
2021/07/09 09:07:05;;;;;;;3.35;1.85;;;;;;;39.09;20.29;101549.64;1860295;77;21400;-77
2021/07/09 09:09:38;;;;;;;2.05;1.82;;;;;;;39.05;20.19;101538.89;1859909;77;20914;-78
2021/07/09 09:12:14;;;;;;;2.17;1.37;;;;;;;39.08;20.73;101545.77;1860213;77;21530;-77
2021/07/09 09:16:11;;;;;;;2.08;1.70;;;;;;;39.11;19.76;101540.60;1798527;79;22313;-76
2021/07/09 09:18:47;;;;;;;3.00;2.00;;;;;;;39.02;20.10;101538.58;1758549;80;21382;-74
2021/07/09 09:21:21;;;;;;;3.20;1.85;;;;;;;38.99;19.75;101537.19;1758222;81;20840;-76
2021/07/09 09:23:53;;;;;;;3.75;2.22;;;;;;;38.96;20.84;101534.42;1758199;81;20941;-74
2021/07/09 09:26:45;;;;;;;3.17;2.20;;;;;;;39.00;20.73;101536.12;1758492;81;21745;-76
2021/07/09 09:29:30;;;;;;;2.85;2.33;;;;;;;39.00;21.28;101530.62;1758220;81;20932;-75
2021/07/09 09:32:04;;;;;;;5.10;1.75;;;;;;;39.04;21.24;101529.55;1758280;81;20904;-75
2021/07/09 09:34:46;;;;;;;3.40;2.37;;;;;;;39.04;19.59;101530.36;1758438;80;21124;-75
2021/07/09 09:37:21;;;;;;;3.92;2.20;;;;;;;38.95;20.48;101534.16;1758278;81;20877;-76
2021/07/09 09:39:48;;;;;;;4.65;1.87;;;;;;;38.85;21.22;101531.83;1758178;80;20852;-74
2021/07/09 09:42:19;;;;;;;3.92;2.62;;;;;;;38.86;20.98;101529.35;1758306;80;21458;-74
2021/07/09 09:44:51;;;;;;;2.30;2.10;;;;;;;38.88;21.06;101528.55;1758552;81;20927;-75
2021/07/09 09:47:22;;;;;;;;;;;;;;;38.91;21.54;101528.02;1760894;80;21139;-75
2021/07/09 09:49:59;;;;;;;3.47;1.37;;;;;;;38.95;21.37;101525.08;1758478;81;20092;-74
2021/07/09 09:52:45;;;;;;;3.52;1.50;;;;;;;38.96;20.91;101522.63;1723636;81;21346;-74
2021/07/09 09:55:19;;;;;;;3.22;1.25;;;;;;;39.07;19.63;101519.44;1724918;81;20995;-75
2021/07/09 09:57:46;;;;;;;2.87;1.75;;;;;;;39.08;19.63;101525.20;1724909;82;20931;-73
2021/07/09 10:00:25;;;;;;;4.10;1.55;;;;;;;39.05;19.97;101518.88;1724731;81;21132;-73
2021/07/09 10:02:51;;;;;;;2.17;1.57;;;;;;;38.99;20.10;101511.67;1724671;83;20986;-73
2021/07/09 10:05:18;;;;;;;13.88;2.00;;;;;;;38.87;20.90;101512.64;1724902;81;20855;-73
2021/07/09 10:07:45;;;;;;;1.52;1.42;;;;;;;38.84;19.94;101507.66;1724889;81;20899;-74
2021/07/09 10:10:14;;;;;;;3.20;1.45;;;;;;;38.84;20.05;101508.21;1725082;83;21526;-73
2021/07/09 10:12:42;;;;;;;3.50;1.52;;;;;;;38.82;21.50;101511.75;1724506;83;21142;-73
2021/07/09 10:15:11;;;;;;;5.60;1.67;;;;;;;38.85;20.73;101506.59;1720353;83;20876;-72
2021/07/09 10:17:39;;;;;;;3.80;1.70;;;;;;;38.84;20.55;101503.55;1716960;82;20944;-73
2021/07/09 10:20:08;;;;;;;1.75;1.40;;;;;;;38.79;20.45;101498.02;1717418;83;21298;-73
2021/07/09 10:22:34;;;;;;;2.30;1.42;;;;;;;38.72;21.43;101495.49;1717092;83;20967;-74
2021/07/09 10:25:01;;;;;;;3.05;1.50;;;;;;;38.76;20.94;101491.15;1717280;83;21500;-71
2021/07/09 10:27:28;;;;;;;1.95;1.57;;;;;;;38.77;20.53;101487.86;1716408;83;20873;-74
2021/07/09 10:30:00;;;;;;;3.10;1.37;;;;;;;38.74;19.76;101478.79;1716694;83;20908;-73
2021/07/09 10:32:43;;;;;;;4.12;1.50;;;;;;;38.69;20.68;101474.64;1711796;83;20888;-73
2021/07/09 10:35:13;;;;;;;10.10;2.67;;;;;;;38.64;21.18;101473.20;1716707;82;21033;-75
2021/07/09 10:37:40;;;;;;;8.18;2.20;;;;;;;38.60;20.63;101466.58;1715706;83;21136;-71
2021/07/09 10:40:19;;;;;;;12.78;3.05;;;;;;;38.61;20.69;101468.25;1716362;83;20908;-73
2021/07/09 10:42:47;;;;;;;5.60;2.30;;;;;;;38.63;21.02;101466.08;1716541;82;20936;-72
2021/07/09 10:45:20;;;;;;;4.60;1.62;;;;;;;38.59;21.62;101456.70;1716518;82;21449;-71
2021/07/09 10:48:13;;;;;;;2.60;1.98;;;;;;;38.60;21.70;101457.83;1716777;83;20947;-72
2021/07/09 10:50:52;;;;;;;4.47;2.25;;;;;;;38.69;21.56;101446.66;1716429;82;21120;-71
2021/07/09 10:53:29;;;;;;;7.35;1.90;;;;;;;38.76;21.72;101437.67;1752450;81;21007;-77
2021/07/09 10:56:02;;;;;;;2.70;1.42;;;;;;;38.83;21.65;101442.94;1752484;82;21429;-77
2021/07/09 10:58:40;;;;;;;5.10;1.85;;;;;;;38.81;20.92;101440.18;1752912;80;20877;-81
2021/07/09 11:01:18;;;;;;;5.17;1.60;;;;;;;38.81;20.75;101436.06;1752280;81;20972;-81
2021/07/09 11:03:57;;;;;;;5.37;1.60;;;;;;;38.76;21.06;101428.08;1716418;82;20876;-77
2021/07/09 11:06:36;;;;;;;2.95;1.98;;;;;;;38.69;21.67;101430.21;1716560;83;20971;-80
2021/07/09 11:09:11;;;;;;;7.75;1.77;;;;;;;38.55;21.16;101424.86;1716346;83;20877;-78
2021/07/09 11:11:50;;;;;;;6.60;1.72;;;;;;;38.48;21.59;101428.36;1716593;82;21444;-80
2021/07/09 11:14:33;;;;;;;1.82;1.70;;;;;;;38.27;21.44;101424.02;1735542;81;20940;-72
2021/07/09 11:17:17;;;;;;;4.12;1.70;;;;;;;38.09;21.88;101423.84;1757967;80;22179;-72
2021/07/09 11:19:44;;;;;;;3.42;1.37;;;;;;;37.87;21.98;101422.45;1758049;80;20987;-72
2021/07/09 11:22:13;;;;;;;4.50;1.82;;;;;;;37.65;21.91;101420.26;1757980;81;21520;-73
2021/07/09 11:24:53;;;;;;;3.83;1.52;;;;;;;37.46;20.43;101425.16;1758117;81;20939;-73
2021/07/09 11:27:24;;;;;;;2.90;1.60;;;;;;;37.24;21.48;101419.64;1721846;83;21540;-73
2021/07/09 11:29:50;;;;;;;4.42;1.55;;;;;;;37.02;22.24;101412.20;1722039;83;21552;-73
2021/07/09 11:32:19;;;;;;;1.67;1.42;;;;;;;36.80;21.89;101406.65;1721768;82;20915;-66